Time;durP1;ratioP1;P1;durP2;ratioP2;P2;SDS_P1;SDS_P2;PMS_P1;PMS_P2;Temp;Humidity;BMP_temperature;BMP_pressure;BME280_temperature;BME280_humidity;BME280_pressure;Samples;Min_cycle;Max_cycle;Signal;HPM_P1;HPM_P2
2022/05/26 00:01:54;;;;;;;3.60;3.40;;;;;;;10.28;100.00;97405.97;4964672;28;20616;-54
2022/05/26 00:04:22;;;;;;;3.67;3.47;;;;;;;10.33;100.00;97403.63;4933576;28;20222;-53
2022/05/26 00:06:50;;;;;;;3.47;3.27;;;;;;;10.41;100.00;97400.13;4968976;28;20729;-53
2022/05/26 00:09:19;;;;;;;3.33;3.23;;;;;;;10.45;100.00;97405.91;4962024;28;20494;-50
2022/05/26 00:11:47;;;;;;;3.20;3.07;;;;;;;10.50;100.00;97398.25;4943495;28;20323;-50
2022/05/26 00:14:15;;;;;;;4.00;3.70;;;;;;;10.55;100.00;97404.63;4960462;28;20316;-51
2022/05/26 00:16:45;;;;;;;3.57;3.37;;;;;;;10.65;100.00;97399.09;4964651;28;20325;-51
2022/05/26 00:19:15;;;;;;;3.60;3.33;;;;;;;10.60;100.00;97396.16;4935398;28;20228;-54
2022/05/26 00:21:45;;;;;;;3.60;3.40;;;;;;;10.72;100.00;97404.53;4969072;28;20320;-49
2022/05/26 00:24:13;;;;;;;3.23;3.03;;;;;;;10.80;100.00;97400.97;4969159;28;20813;-53
2022/05/26 00:26:43;;;;;;;2.90;2.70;;;;;;;10.84;100.00;97403.06;4944532;28;20233;-48
2022/05/26 00:29:11;;;;;;;3.17;3.07;;;;;;;10.85;100.00;97403.91;4970206;28;20560;-52
2022/05/26 00:31:39;;;;;;;3.10;2.90;;;;;;;10.84;100.00;97404.91;4970227;28;20230;-49
2022/05/26 00:34:07;;;;;;;3.03;2.83;;;;;;;10.84;100.00;97408.38;4936946;28;21233;-54
2022/05/26 00:36:43;;;;;;;2.97;2.87;;;;;;;10.84;100.00;97410.22;4973504;28;20626;-49
2022/05/26 00:39:14;;;;;;;2.93;2.73;;;;;;;10.92;100.00;97404.00;4968460;28;20633;-46
2022/05/26 00:41:46;;;;;;;3.20;3.00;;;;;;;10.99;100.00;97402.28;4953480;28;20210;-50
2022/05/26 00:44:14;;;;;;;3.10;3.00;;;;;;;10.90;100.00;97403.34;4973705;28;20291;-54
2022/05/26 00:46:49;;;;;;;2.97;2.77;;;;;;;10.75;100.00;97409.47;4969112;28;20339;-49
2022/05/26 00:49:23;;;;;;;2.83;2.73;;;;;;;10.63;100.00;97413.56;4938981;28;20213;-53
2022/05/26 00:51:51;;;;;;;2.93;2.83;;;;;;;10.66;100.00;97419.28;4973946;28;20309;-53
2022/05/26 00:54:22;;;;;;;3.10;3.00;;;;;;;10.70;100.00;97417.94;4969739;28;20294;-54
2022/05/26 00:56:57;;;;;;;3.40;3.10;;;;;;;10.57;100.00;97412.44;4964206;28;20310;-51
2022/05/26 00:59:32;;;;;;;3.10;3.00;;;;;;;10.41;100.00;97421.31;4950579;28;20332;-50
2022/05/26 01:02:00;;;;;;;3.27;3.07;;;;;;;10.41;100.00;97419.47;4969527;28;20431;-54
2022/05/26 01:04:34;;;;;;;3.20;3.10;;;;;;;10.28;100.00;97411.28;4936149;28;20222;-50
2022/05/26 01:07:07;;;;;;;3.13;3.00;;;;;;;10.31;100.00;97412.75;4974670;28;20376;-51
2022/05/26 01:09:35;;;;;;;2.90;2.80;;;;;;;10.32;100.00;97407.28;4969398;28;20737;-48
2022/05/26 01:12:06;;;;;;;3.60;3.40;;;;;;;10.35;100.00;97412.22;4967571;28;20371;-48
2022/05/26 01:14:37;;;;;;;3.23;3.13;;;;;;;10.39;100.00;97407.41;4948123;28;20301;-51
2022/05/26 01:17:09;;;;;;;3.70;3.50;;;;;;;10.34;100.00;97404.47;4972220;28;20225;-48
2022/05/26 01:20:20;;;;;;;3.37;3.17;;;;;;;10.10;100.00;97408.91;4949945;28;20216;-48
2022/05/26 01:23:24;;;;;;;3.37;3.10;;;;;;;10.15;100.00;97403.91;4972619;28;20845;-50
2022/05/26 01:26:30;;;;;;;3.30;3.10;;;;;;;9.92;100.00;97412.69;4954109;28;20867;-47
2022/05/26 01:29:30;;;;;;;3.23;3.10;;;;;;;9.98;100.00;97421.72;4941711;28;20473;-47
2022/05/26 01:32:05;;;;;;;3.40;3.10;;;;;;;9.97;100.00;97406.84;4968036;28;20982;-49
2022/05/26 01:34:40;;;;;;;3.37;3.13;;;;;;;9.98;100.00;97405.84;4965522;28;20202;-48
2022/05/26 01:37:15;;;;;;;3.23;3.03;;;;;;;9.82;100.00;97410.25;4938355;28;20224;-50
2022/05/26 01:39:50;;;;;;;5.83;3.50;;;;;;;9.76;100.00;97410.09;4966826;28;20708;-50
2022/05/26 01:42:23;;;;;;;3.50;3.20;;;;;;;9.70;100.00;97404.50;4972009;28;20292;-50
2022/05/26 01:44:55;;;;;;;3.43;3.23;;;;;;;9.59;100.00;97412.00;4941573;28;20510;-50
2022/05/26 01:47:44;;;;;;;4.13;3.70;;;;;;;9.55;100.00;97411.53;4969300;28;20689;-51
2022/05/26 01:50:22;;;;;;;3.43;3.23;;;;;;;9.58;100.00;97405.91;4970354;28;20209;-46
2022/05/26 01:52:57;;;;;;;3.47;3.27;;;;;;;9.43;100.00;97408.44;4935564;28;20231;-46
2022/05/26 01:55:28;;;;;;;3.77;3.57;;;;;;;9.50;100.00;97404.09;4973344;28;20304;-51
2022/05/26 01:57:59;;;;;;;3.83;3.50;;;;;;;9.45;100.00;97395.03;4968169;28;20721;-46
2022/05/26 02:00:27;;;;;;;6.10;3.53;;;;;;;9.46;100.00;97401.97;4969905;28;20908;-49
2022/05/26 02:03:02;;;;;;;3.13;3.03;;;;;;;9.49;100.00;97402.44;4941444;28;20307;-49
2022/05/26 02:05:34;;;;;;;3.80;3.57;;;;;;;9.53;100.00;97409.03;4969044;28;20248;-48
2022/05/26 02:08:05;;;;;;;4.50;3.87;;;;;;;9.53;100.00;97406.41;4934282;28;22781;-49
2022/05/26 02:10:35;;;;;;;3.80;3.60;;;;;;;9.50;100.00;97406.75;4970653;28;20320;-47
2022/05/26 02:13:06;;;;;;;3.80;3.60;;;;;;;9.39;100.00;97405.28;4968052;28;20237;-48
2022/05/26 02:15:37;;;;;;;10.00;3.70;;;;;;;9.42;100.00;97409.44;4966411;28;20312;-50
2022/05/26 02:18:11;;;;;;;4.13;3.80;;;;;;;9.50;100.00;97408.56;4960945;28;20218;-48
2022/05/26 02:20:43;;;;;;;3.87;3.67;;;;;;;9.47;100.00;97404.44;4966800;28;20230;-48
2022/05/26 02:23:14;;;;;;;4.23;3.87;;;;;;;9.43;100.00;97410.22;4967997;28;20325;-48
2022/05/26 02:25:42;;;;;;;4.13;3.40;;;;;;;9.33;100.00;97410.47;4901217;28;20244;-48
2022/05/26 02:28:11;;;;;;;3.93;3.73;;;;;;;9.22;100.00;97412.44;4966807;28;20698;-52
2022/05/26 02:30:41;;;;;;;5.07;4.57;;;;;;;9.19;100.00;97414.63;4965966;28;20206;-47
2022/05/26 02:33:13;;;;;;;4.17;3.87;;;;;;;9.20;100.00;97418.91;4945984;28;20558;-50
2022/05/26 02:35:43;;;;;;;4.33;3.93;;;;;;;9.11;100.00;97420.75;4966244;28;20902;-47
2022/05/26 02:38:13;;;;;;;3.90;3.70;;;;;;;9.06;100.00;97415.97;4970606;28;20665;-52
2022/05/26 02:40:42;;;;;;;4.63;4.33;;;;;;;8.92;100.00;97417.50;4928354;28;20270;-49
2022/05/26 02:43:12;;;;;;;4.10;3.90;;;;;;;9.09;100.00;97418.28;4965265;28;20209;-47
2022/05/26 02:45:51;;;;;;;4.77;3.93;;;;;;;9.02;100.00;97416.47;4965775;28;20225;-49
2022/05/26 02:48:37;;;;;;;3.80;3.60;;;;;;;9.08;100.00;97415.81;4936418;28;20221;-50
2022/05/26 02:51:09;;;;;;;4.37;4.07;;;;;;;9.03;100.00;97416.28;4963623;28;20253;-48
2022/05/26 02:53:41;;;;;;;4.20;4.00;;;;;;;8.95;100.00;97413.69;4946328;28;20233;-50
2022/05/26 02:56:17;;;;;;;5.87;4.53;;;;;;;8.85;100.00;97416.50;4960966;28;20252;-52
2022/05/26 02:58:51;;;;;;;4.57;4.37;;;;;;;8.88;100.00;97410.06;4970197;28;20229;-50
2022/05/26 03:01:23;;;;;;;4.53;4.13;;;;;;;8.93;100.00;97415.66;4968432;28;20265;-52
2022/05/26 03:03:57;;;;;;;4.27;4.03;;;;;;;8.88;100.00;97420.63;4937484;28;20414;-54
2022/05/26 03:06:28;;;;;;;4.10;3.80;;;;;;;8.92;100.00;97411.38;4966659;28;20344;-52
2022/05/26 03:08:56;;;;;;;4.17;3.93;;;;;;;8.92;100.00;97421.94;4923042;28;20213;-52
2022/05/26 03:11:26;;;;;;;4.37;4.17;;;;;;;8.91;100.00;97425.56;4968382;28;20265;-47
2022/05/26 03:13:55;;;;;;;4.00;3.80;;;;;;;8.90;100.00;97431.84;4965293;28;20367;-50
2022/05/26 03:16:23;;;;;;;5.83;4.13;;;;;;;8.83;100.00;97427.25;4969127;28;20328;-53
2022/05/26 03:18:51;;;;;;;3.97;3.67;;;;;;;8.72;100.00;97429.38;4937027;28;20651;-53
2022/05/26 03:21:21;;;;;;;4.17;3.73;;;;;;;8.75;100.00;97429.06;4965593;28;20253;-54
2022/05/26 03:23:49;;;;;;;4.67;4.37;;;;;;;8.88;100.00;97420.63;4963400;28;20427;-48
2022/05/26 03:26:17;;;;;;;4.37;3.97;;;;;;;8.85;100.00;97432.34;4925059;28;20311;-47
2022/05/26 03:28:47;;;;;;;5.90;5.33;;;;;;;8.96;100.00;97429.38;4964454;28;20778;-49
2022/05/26 03:31:15;;;;;;;3.77;3.57;;;;;;;8.93;100.00;97442.09;4966247;28;20671;-46
2022/05/26 03:42:02;;;;;;;3.67;3.50;;;;;;;9.02;100.00;97443.72;4941773;28;20626;-52
2022/05/26 03:44:31;;;;;;;4.77;4.37;;;;;;;9.07;100.00;97440.59;4970043;28;20210;-46
2022/05/26 03:47:00;;;;;;;4.20;4.00;;;;;;;9.04;100.00;97441.72;4961620;28;20452;-51
2022/05/26 03:49:28;;;;;;;4.00;3.80;;;;;;;8.97;100.00;97441.59;4966161;28;20308;-53
2022/05/26 03:51:58;;;;;;;4.23;4.00;;;;;;;8.99;100.00;97441.41;4934033;28;20249;-53
2022/05/26 03:54:27;;;;;;;3.83;3.57;;;;;;;9.08;100.00;97442.22;4967214;28;20821;-51
2022/05/26 03:56:55;;;;;;;6.23;5.70;;;;;;;9.18;100.00;97442.88;4924919;28;20747;-50
2022/05/26 03:59:23;;;;;;;4.73;4.43;;;;;;;9.45;100.00;97451.41;4971468;28;20694;-54
2022/05/26 04:01:51;;;;;;;4.53;4.27;;;;;;;9.68;100.00;97453.31;4963974;28;20291;-51
2022/05/26 04:04:19;;;;;;;5.10;4.67;;;;;;;9.79;100.00;97449.44;4941261;28;20213;-46
2022/05/26 04:06:48;;;;;;;4.07;3.87;;;;;;;9.83;100.00;97451.59;4933249;28;20225;-50
2022/05/26 04:09:18;;;;;;;4.00;3.70;;;;;;;9.89;100.00;97459.81;4937713;28;20614;-45
2022/05/26 04:11:46;;;;;;;4.30;3.97;;;;;;;9.92;100.00;97462.97;4925238;28;20202;-47
2022/05/26 04:14:14;;;;;;;4.33;4.03;;;;;;;10.03;100.00;97456.44;4963923;28;20705;-52
2022/05/26 04:16:43;;;;;;;3.67;3.47;;;;;;;10.08;100.00;97456.75;4961944;28;20348;-46
2022/05/26 04:19:11;;;;;;;3.60;3.50;;;;;;;10.35;100.00;97459.88;4964320;28;20499;-50
2022/05/26 04:22:15;;;;;;;3.70;3.50;;;;;;;10.62;100.00;97459.59;4948354;28;20237;-48
2022/05/26 04:24:30;;;;;;;3.40;3.20;;;;;;;10.61;100.00;97450.81;4964841;28;20216;-47
2022/05/26 04:26:58;;;;;;;3.47;3.17;;;;;;;10.50;100.00;97448.59;4921571;28;20368;-48
2022/05/26 04:29:26;;;;;;;3.40;3.20;;;;;;;10.57;100.00;97450.31;4967809;28;20205;-51
2022/05/26 04:31:55;;;;;;;6.47;3.50;;;;;;;10.73;100.00;97451.22;4965833;28;20518;-51
2022/05/26 04:34:23;;;;;;;3.30;3.10;;;;;;;10.84;100.00;97444.69;4963316;28;20217;-54
2022/05/26 04:36:51;;;;;;;3.10;2.90;;;;;;;11.08;100.00;97458.69;4935584;28;20229;-53
2022/05/26 04:39:19;;;;;;;3.33;2.80;;;;;;;11.05;100.00;97446.63;4963584;28;20551;-52
2022/05/26 04:41:48;;;;;;;2.80;2.70;;;;;;;10.99;100.00;97460.63;4923929;28;20303;-46
2022/05/26 04:44:18;;;;;;;2.77;2.60;;;;;;;11.11;100.00;97461.81;4963379;28;20236;-52
2022/05/26 04:46:46;;;;;;;2.80;2.60;;;;;;;11.13;100.00;97462.47;4958173;28;20307;-46
2022/05/26 04:49:14;;;;;;;3.60;2.37;;;;;;;11.23;100.00;97461.38;4967856;28;20218;-54
2022/05/26 04:51:42;;;;;;;2.70;2.60;;;;;;;11.21;100.00;97468.69;4964424;28;20260;-49
2022/05/26 04:54:10;;;;;;;2.50;2.30;;;;;;;11.43;100.00;97466.97;4938230;28;20296;-53
2022/05/26 04:56:38;;;;;;;2.50;2.40;;;;;;;11.61;100.00;97468.44;4963176;28;20284;-49
2022/05/26 04:59:08;;;;;;;2.40;2.13;;;;;;;11.79;100.00;97476.84;4923754;28;20717;-53
2022/05/26 05:01:36;;;;;;;2.70;2.60;;;;;;;11.84;100.00;97478.94;4933825;28;20210;-47
2022/05/26 05:04:04;;;;;;;2.60;2.40;;;;;;;12.08;100.00;97477.84;4964426;28;20230;-53
2022/05/26 05:06:33;;;;;;;3.43;2.80;;;;;;;11.99;100.00;97474.44;4967367;28;20283;-49
2022/05/26 05:09:01;;;;;;;2.70;2.60;;;;;;;12.09;100.00;97479.50;4939844;28;22298;-49
2022/05/26 05:11:29;;;;;;;2.63;2.43;;;;;;;12.24;100.00;97481.28;4966209;28;20883;-49
2022/05/26 05:13:58;;;;;;;4.50;2.80;;;;;;;12.02;100.00;97492.69;4929655;28;20418;-56
2022/05/26 05:16:30;;;;;;;2.23;2.13;;;;;;;12.00;100.00;97493.84;4972311;28;20237;-53
2022/05/26 05:18:58;;;;;;;2.33;2.23;;;;;;;11.94;100.00;97500.72;4969424;28;20214;-47
2022/05/26 05:21:33;;;;;;;2.87;2.27;;;;;;;11.89;100.00;97500.47;4970107;28;20598;-54
2022/05/26 05:24:05;;;;;;;2.77;2.57;;;;;;;12.02;100.00;97503.28;4968221;28;20510;-51
2022/05/26 05:26:36;;;;;;;3.40;2.60;;;;;;;11.91;100.00;97501.09;4931816;28;20269;-49
2022/05/26 05:29:08;;;;;;;2.80;2.70;;;;;;;11.71;100.00;97504.28;4963075;28;21035;-45
2022/05/26 05:31:40;;;;;;;2.57;2.47;;;;;;;11.58;100.00;97507.63;4931465;28;20356;-49
2022/05/26 05:34:12;;;;;;;2.40;2.27;;;;;;;11.96;100.00;97516.47;4970158;28;20862;-51
2022/05/26 05:36:40;;;;;;;2.90;2.70;;;;;;;12.02;100.00;97507.81;4967034;28;20257;-47
2022/05/26 05:39:08;;;;;;;2.83;2.63;;;;;;;12.42;100.00;97505.63;4968152;28;20744;-52
2022/05/26 05:41:37;;;;;;;2.97;2.77;;;;;;;12.53;100.00;97509.63;4935977;28;20326;-51
2022/05/26 05:44:06;;;;;;;3.40;2.80;;;;;;;12.77;100.00;97509.44;4939091;28;20287;-51
2022/05/26 05:46:53;;;;;;;3.23;3.00;;;;;;;12.85;100.00;97514.63;4925311;28;20226;-48
2022/05/26 05:49:25;;;;;;;2.97;2.83;;;;;;;13.08;100.00;97519.72;4944310;28;20458;-55
2022/05/26 05:51:53;;;;;;;3.37;2.80;;;;;;;13.28;100.00;97521.75;4974391;28;20202;-53
2022/05/26 05:54:22;;;;;;;2.90;2.60;;;;;;;13.47;100.00;97528.25;4967387;28;21674;-51
2022/05/26 05:56:50;;;;;;;2.50;2.40;;;;;;;13.58;100.00;97525.06;4939474;28;20582;-51
2022/05/26 05:59:19;;;;;;;2.70;2.50;;;;;;;13.88;100.00;97524.00;4967422;28;20509;-52
2022/05/26 06:01:47;;;;;;;2.00;1.90;;;;;;;13.91;100.00;97520.13;4932667;28;20214;-47
2022/05/26 06:04:15;;;;;;;2.20;2.00;;;;;;;14.10;100.00;97522.03;4965646;28;20237;-53
2022/05/26 06:06:45;;;;;;;2.87;2.20;;;;;;;14.06;100.00;97533.31;4969582;28;20226;-51
2022/05/26 06:09:15;;;;;;;2.27;2.17;;;;;;;14.16;100.00;97529.25;4964522;28;20202;-50
2022/05/26 06:11:44;;;;;;;1.83;1.80;;;;;;;14.07;100.00;97524.31;4941890;28;20348;-48
2022/05/26 06:14:13;;;;;;;2.07;1.90;;;;;;;14.19;100.00;97528.84;4967082;28;20209;-47
2022/05/26 06:16:41;;;;;;;2.47;2.00;;;;;;;14.55;100.00;97529.59;4966287;28;20238;-49
2022/05/26 06:19:09;;;;;;;1.97;1.87;;;;;;;14.81;100.00;97529.88;4934397;28;20221;-50
2022/05/26 06:21:38;;;;;;;2.47;1.50;;;;;;;15.02;100.00;97528.88;4972050;28;20229;-49
2022/05/26 06:24:09;;;;;;;1.20;1.20;;;;;;;15.28;100.00;97519.25;4965280;28;20256;-52
2022/05/26 06:26:37;;;;;;;1.40;1.30;;;;;;;15.42;100.00;97531.56;4936087;28;20232;-53
2022/05/26 06:37:28;;;;;;;1.10;1.10;;;;;;;16.33;100.00;97536.28;4968018;28;20541;-51
2022/05/26 06:39:57;;;;;;;1.03;0.80;;;;;;;16.28;100.00;97528.91;4969707;28;20558;-47
2022/05/26 06:42:26;;;;;;;0.83;0.83;;;;;;;16.30;100.00;97537.56;4948756;28;20466;-51
2022/05/26 06:44:54;;;;;;;1.10;1.00;;;;;;;16.10;100.00;97539.47;4967155;28;20299;-49
2022/05/26 06:47:23;;;;;;;1.00;1.00;;;;;;;16.36;100.00;97543.88;4967200;28;20552;-52
2022/05/26 06:49:51;;;;;;;1.10;0.80;;;;;;;16.50;100.00;97541.97;4938908;28;20697;-49
2022/05/26 06:52:23;;;;;;;0.90;0.90;;;;;;;16.39;100.00;97542.66;4969420;28;20205;-51
2022/05/26 06:54:51;;;;;;;2.77;0.80;;;;;;;16.55;100.00;97539.47;4971355;28;20716;-47
2022/05/26 06:57:21;;;;;;;0.87;0.73;;;;;;;16.63;100.00;97546.44;4945381;28;20248;-51
2022/05/26 06:59:49;;;;;;;1.53;1.00;;;;;;;16.78;100.00;97532.78;4972145;28;20420;-48
2022/05/26 07:02:18;;;;;;;2.50;2.30;;;;;;;16.83;100.00;97537.47;4966267;28;20402;-48
2022/05/26 07:04:46;;;;;;;1.10;1.00;;;;;;;16.75;100.00;97555.41;4939481;28;20245;-50
2022/05/26 07:07:15;;;;;;;2.50;1.33;;;;;;;16.83;100.00;97548.16;4966034;28;20225;-48
2022/05/26 07:09:43;;;;;;;0.70;0.70;;;;;;;16.87;100.00;97542.19;4968615;28;20650;-48
2022/05/26 07:12:12;;;;;;;1.00;1.00;;;;;;;17.17;100.00;97549.63;4945285;28;20213;-48
2022/05/26 07:14:42;;;;;;;1.70;1.00;;;;;;;17.19;100.00;97552.91;4972280;28;20209;-51
2022/05/26 07:17:10;;;;;;;2.03;0.90;;;;;;;17.16;100.00;97560.53;4967392;28;20329;-49
2022/05/26 07:19:38;;;;;;;1.43;0.70;;;;;;;17.24;100.00;97549.59;4936672;28;20237;-47
2022/05/26 07:22:06;;;;;;;0.50;0.50;;;;;;;17.50;100.00;97555.75;4971599;28;20314;-50
2022/05/26 07:24:34;;;;;;;1.63;1.27;;;;;;;17.74;100.00;97562.13;4967447;28;20320;-48
2022/05/26 07:27:03;;;;;;;1.37;1.17;;;;;;;17.89;99.91;97572.50;4959889;28;20724;-49
2022/05/26 07:29:31;;;;;;;2.00;1.10;;;;;;;17.85;100.00;97567.81;4953111;28;20320;-51
2022/05/26 07:32:01;;;;;;;1.53;0.73;;;;;;;17.78;98.80;97570.53;4971699;28;20229;-50
2022/05/26 07:34:29;;;;;;;1.87;0.80;;;;;;;17.91;95.24;97567.72;4968052;28;20894;-56
2022/05/26 07:42:32;;;;;;;5.40;1.10;;;;;;;17.91;95.29;97572.28;4968986;28;20505;-54
2022/05/26 07:45:02;;;;;;;1.23;0.90;;;;;;;17.96;85.86;97568.91;4946608;28;20256;-47
2022/05/26 07:47:31;;;;;;;1.73;1.03;;;;;;;17.97;80.45;97573.22;4967701;28;20510;-53
2022/05/26 07:49:59;;;;;;;0.60;0.60;;;;;;;18.03;84.92;97564.34;4965254;28;20216;-49
2022/05/26 07:52:29;;;;;;;0.60;0.60;;;;;;;18.13;96.45;97570.00;4933060;28;20440;-52
2022/05/26 07:54:57;;;;;;;1.03;0.80;;;;;;;18.34;88.66;97565.22;4967823;28;20252;-50
2022/05/26 07:57:28;;;;;;;0.97;0.90;;;;;;;18.16;77.28;97564.19;4966184;28;20819;-54
2022/05/26 07:59:58;;;;;;;1.27;0.80;;;;;;;17.89;83.40;97571.69;4947907;28;20486;-50
2022/05/26 08:02:26;;;;;;;0.60;0.60;;;;;;;18.07;86.83;97571.72;4967533;28;20377;-54
2022/05/26 08:04:56;;;;;;;1.03;0.80;;;;;;;18.04;83.24;97568.69;4968040;28;20229;-53
2022/05/26 08:07:24;;;;;;;0.90;0.90;;;;;;;18.02;84.95;97568.88;4933052;28;20874;-54
2022/05/26 08:09:52;;;;;;;1.77;0.77;;;;;;;17.98;82.69;97577.56;4964862;28;20241;-54
2022/05/26 08:12:21;;;;;;;2.40;0.70;;;;;;;17.81;87.80;97570.09;4966397;28;20232;-54
2022/05/26 08:14:49;;;;;;;1.70;0.97;;;;;;;18.09;83.45;97563.47;4946123;28;20210;-52
2022/05/26 08:17:20;;;;;;;1.33;1.00;;;;;;;18.48;74.58;97581.97;4968224;28;20221;-55
2022/05/26 08:19:48;;;;;;;1.67;0.90;;;;;;;18.54;74.27;97569.53;4967359;28;20233;-53
2022/05/26 08:22:19;;;;;;;1.50;0.80;;;;;;;18.23;85.20;97569.50;4928997;28;20213;-52
2022/05/26 08:24:50;;;;;;;0.70;0.70;;;;;;;18.15;82.00;97577.81;4971979;28;20284;-56
2022/05/26 08:27:18;;;;;;;0.70;0.70;;;;;;;18.17;85.68;97578.41;4964439;28;20359;-56
2022/05/26 08:29:46;;;;;;;1.17;1.07;;;;;;;18.49;84.06;97578.25;4932455;28;20611;-50
2022/05/26 08:32:16;;;;;;;0.97;0.97;;;;;;;18.99;80.34;97585.28;4966579;28;20547;-54
2022/05/26 08:34:44;;;;;;;2.00;1.90;;;;;;;18.61;82.53;97572.94;4954481;28;20487;-55
2022/05/26 08:37:16;;;;;;;1.10;1.00;;;;;;;18.89;83.12;97582.28;4970082;28;20595;-49
2022/05/26 08:39:46;;;;;;;0.70;0.70;;;;;;;18.95;75.32;97584.91;4934103;28;20848;-56
2022/05/26 08:42:18;;;;;;;0.73;0.73;;;;;;;19.38;70.38;97588.41;4973608;28;20210;-57
2022/05/26 08:44:47;;;;;;;1.80;1.00;;;;;;;19.07;80.87;97584.94;4944473;28;21856;-55
2022/05/26 08:47:16;;;;;;;1.50;0.77;;;;;;;19.37;83.93;97578.72;4971410;28;20280;-50
2022/05/26 08:49:50;;;;;;;0.50;0.50;;;;;;;19.32;69.82;97583.13;4969210;28;20416;-56
2022/05/26 08:52:23;;;;;;;1.23;0.80;;;;;;;19.70;72.92;97587.28;4962024;28;20283;-52
2022/05/26 08:54:58;;;;;;;1.90;0.90;;;;;;;20.12;74.30;97580.97;4930979;28;20339;-50
2022/05/26 08:57:29;;;;;;;1.03;0.93;;;;;;;20.06;75.60;97579.22;4973431;28;20804;-47
2022/05/26 08:59:58;;;;;;;0.70;0.70;;;;;;;20.17;67.43;97589.16;4943304;28;20860;-48
2022/05/26 09:02:30;;;;;;;0.77;0.77;;;;;;;19.46;69.70;97591.78;4971881;28;20202;-49
2022/05/26 09:05:00;;;;;;;2.33;2.10;;;;;;;19.66;72.96;97594.97;4973936;28;20833;-51
2022/05/26 09:13:12;;;;;;;2.73;2.57;;;;;;;19.77;71.87;97597.91;4968314;28;20210;-51
2022/05/26 09:15:41;;;;;;;1.30;1.13;;;;;;;20.14;61.55;97594.19;4944803;28;20235;-51
2022/05/26 09:18:15;;;;;;;1.77;1.67;;;;;;;20.46;64.95;97594.59;4973395;28;20321;-54
2022/05/26 09:20:44;;;;;;;0.77;0.63;;;;;;;20.18;67.73;97609.59;4964702;28;20702;-51
2022/05/26 09:23:23;;;;;;;1.50;0.80;;;;;;;19.88;61.62;97594.38;4961582;28;20249;-51
2022/05/26 09:25:54;;;;;;;1.03;0.80;;;;;;;19.60;62.12;97598.59;4931417;28;20885;-52
2022/05/26 09:28:35;;;;;;;0.63;0.50;;;;;;;19.41;69.43;97605.94;4972633;28;20774;-48
2022/05/26 09:31:28;;;;;;;0.70;0.70;;;;;;;19.82;70.26;97611.47;4945319;28;20789;-54
2022/05/26 09:34:02;;;;;;;0.80;0.77;;;;;;;20.22;64.09;97605.38;4971168;28;20779;-48
2022/05/26 09:36:33;;;;;;;0.90;0.90;;;;;;;20.49;61.48;97610.25;4969287;28;20260;-50
2022/05/26 09:39:01;;;;;;;0.60;0.60;;;;;;;20.53;58.27;97611.41;4966998;28;20213;-56
2022/05/26 09:41:37;;;;;;;0.70;0.70;;;;;;;20.18;63.27;97615.00;4934879;28;20237;-50
2022/05/26 09:44:32;;;;;;;0.90;0.70;;;;;;;20.09;70.10;97611.88;4974216;28;20235;-55
2022/05/26 09:47:04;;;;;;;0.70;0.70;;;;;;;19.64;63.66;97609.69;4945438;28;20438;-52
2022/05/26 09:49:38;;;;;;;0.77;0.70;;;;;;;19.67;64.77;97614.59;4972621;28;20201;-48
2022/05/26 09:52:17;;;;;;;1.70;0.80;;;;;;;19.80;66.81;97624.31;4966915;28;20775;-49
2022/05/26 09:54:46;;;;;;;1.07;0.80;;;;;;;20.19;69.11;97615.81;4956056;28;20652;-55
2022/05/26 09:57:19;;;;;;;1.07;0.90;;;;;;;20.58;62.76;97626.03;4933661;28;20243;-52
2022/05/26 09:59:48;;;;;;;0.90;0.70;;;;;;;20.71;62.24;97625.78;4971111;28;20209;-51
2022/05/26 10:02:19;;;;;;;0.50;0.50;;;;;;;20.51;66.88;97631.56;4969488;28;20205;-54
2022/05/26 10:05:07;;;;;;;1.20;0.80;;;;;;;20.34;66.27;97634.97;4944379;28;20475;-53
2022/05/26 10:07:57;;;;;;;0.83;0.80;;;;;;;20.32;62.46;97629.00;4970264;28;20280;-52
2022/05/26 10:10:28;;;;;;;0.90;0.90;;;;;;;20.29;63.99;97631.38;4955342;28;20596;-51
2022/05/26 10:13:11;;;;;;;0.90;0.90;;;;;;;20.67;61.53;97630.81;4931703;28;20306;-53
2022/05/26 10:15:49;;;;;;;1.80;0.90;;;;;;;20.94;62.50;97630.28;4969955;28;20303;-49
2022/05/26 10:18:35;;;;;;;1.17;0.80;;;;;;;21.38;60.39;97637.78;4946483;28;20215;-50
2022/05/26 10:21:09;;;;;;;0.83;0.83;;;;;;;20.86;60.78;97648.69;4977674;28;20626;-51
2022/05/26 10:23:55;;;;;;;1.57;0.87;;;;;;;20.91;57.92;97644.25;4956349;28;20210;-48
2022/05/26 10:26:30;;;;;;;1.77;0.67;;;;;;;20.76;60.90;97644.72;4969355;28;20344;-49
2022/05/26 10:29:23;;;;;;;0.80;0.80;;;;;;;21.15;61.31;97644.13;4930840;28;20581;-51
2022/05/26 10:32:01;;;;;;;1.47;0.83;;;;;;;21.38;58.97;97647.78;4966254;28;20366;-47
2022/05/26 10:34:39;;;;;;;0.70;0.70;;;;;;;21.51;55.75;97635.88;4947812;28;20205;-50
2022/05/26 10:37:12;;;;;;;0.90;0.87;;;;;;;21.44;56.89;97643.31;4971044;28;20639;-55
2022/05/26 10:39:55;;;;;;;0.70;0.70;;;;;;;21.44;62.91;97637.91;4955106;28;20752;-49
2022/05/26 10:42:27;;;;;;;2.83;0.70;;;;;;;21.24;56.82;97633.78;4966289;28;20351;-50
2022/05/26 10:45:07;;;;;;;0.70;0.70;;;;;;;21.63;58.92;97628.50;4933985;28;20711;-54
2022/05/26 10:47:39;;;;;;;1.60;1.50;;;;;;;21.72;57.70;97631.66;4967234;28;20521;-49
2022/05/26 10:50:11;;;;;;;1.20;1.10;;;;;;;21.28;57.71;97634.94;4951000;28;20221;-49
2022/05/26 10:52:42;;;;;;;1.23;0.67;;;;;;;21.44;55.61;97627.94;4969042;28;20287;-48
2022/05/26 10:55:14;;;;;;;0.60;0.60;;;;;;;21.88;58.71;97618.41;4959866;28;20209;-50
2022/05/26 10:57:46;;;;;;;0.60;0.60;;;;;;;21.88;54.16;97623.78;4967684;28;20371;-52
2022/05/26 11:00:18;;;;;;;0.40;0.40;;;;;;;21.54;51.81;97636.19;4935550;28;20240;-54
2022/05/26 11:02:53;;;;;;;0.70;0.63;;;;;;;21.90;53.20;97635.16;4969039;28;20419;-54
2022/05/26 11:05:30;;;;;;;1.00;0.53;;;;;;;22.21;50.81;97620.25;4944966;28;20233;-53
2022/05/26 11:08:10;;;;;;;0.57;0.57;;;;;;;21.96;47.42;97621.50;4970428;28;20583;-54
2022/05/26 11:10:44;;;;;;;0.47;0.47;;;;;;;22.60;48.74;97619.41;4950918;28;20216;-50
2022/05/26 11:13:15;;;;;;;0.40;0.40;;;;;;;22.65;45.10;97622.16;4970980;28;20570;-50
2022/05/26 11:18:37;;;;;;;2.63;0.40;;;;;;;22.26;50.07;97622.19;4968486;28;20221;-49
2022/05/26 11:21:05;;;;;;;0.57;0.47;;;;;;;21.27;56.74;97627.91;4947643;28;20992;-54
2022/05/26 11:23:37;;;;;;;0.77;0.60;;;;;;;20.22;58.68;97620.72;4968933;28;20229;-51
2022/05/26 11:26:09;;;;;;;0.70;0.70;;;;;;;19.61;65.45;97620.91;4959151;28;20238;-54
2022/05/26 11:28:40;;;;;;;1.13;0.50;;;;;;;19.07;69.18;97627.09;4966415;28;20279;-51
2022/05/26 11:36:49;;;;;;;1.10;1.10;;;;;;;18.43;81.00;97643.53;4904554;28;20447;-50
2022/05/26 11:39:21;;;;;;;0.93;0.93;;;;;;;18.28;84.58;97635.84;4969594;28;20301;-53
2022/05/26 11:41:51;;;;;;;0.67;0.60;;;;;;;18.25;85.41;97647.03;4952349;28;20845;-51
2022/05/26 11:44:40;;;;;;;0.60;0.60;;;;;;;18.41;84.29;97638.41;4967694;28;20475;-53
2022/05/26 11:47:31;;;;;;;0.90;0.70;;;;;;;18.54;87.01;97653.53;4938233;28;20642;-49
2022/05/26 11:50:31;;;;;;;0.60;0.60;;;;;;;18.53;82.15;97641.16;4972048;28;20775;-53
2022/05/26 11:53:15;;;;;;;0.90;0.77;;;;;;;18.54;81.57;97642.78;4949068;28;20216;-52
2022/05/26 11:55:49;;;;;;;0.67;0.67;;;;;;;18.41;79.46;97646.47;4954748;28;20465;-49
2022/05/26 11:58:35;;;;;;;0.67;0.67;;;;;;;18.41;79.42;97649.16;4965969;28;20209;-50
2022/05/26 12:01:34;;;;;;;1.37;0.60;;;;;;;18.32;77.06;97645.94;4966170;28;20548;-51
2022/05/26 12:04:15;;;;;;;1.40;0.70;;;;;;;18.42;76.80;97642.75;4967466;28;20205;-52
2022/05/26 12:06:55;;;;;;;1.00;1.00;;;;;;;18.64;76.92;97648.47;4964819;28;20689;-55
2022/05/26 12:09:31;;;;;;;0.50;0.50;;;;;;;19.03;72.66;97652.78;4943917;28;20216;-49
2022/05/26 12:12:01;;;;;;;1.27;0.50;;;;;;;19.42;65.44;97644.34;4954239;28;20438;-51
2022/05/26 12:14:32;;;;;;;0.83;0.50;;;;;;;20.27;66.35;97649.59;4970398;28;20201;-48
2022/05/26 12:17:33;;;;;;;1.33;0.60;;;;;;;20.11;63.59;97649.25;4934216;28;20307;-54
2022/05/26 12:20:05;;;;;;;1.17;1.07;;;;;;;20.01;59.69;97640.97;4971104;28;20201;-53
2022/05/26 12:22:36;;;;;;;0.50;0.50;;;;;;;19.87;59.49;97635.78;4960246;28;20696;-48
2022/05/26 12:25:17;;;;;;;0.43;0.43;;;;;;;19.95;63.75;97632.78;4971281;28;20216;-48
2022/05/26 12:28:06;;;;;;;1.37;0.50;;;;;;;20.89;60.08;97640.13;4955972;28;20324;-49
2022/05/26 12:31:05;;;;;;;1.20;0.40;;;;;;;22.08;53.81;97631.38;4969887;28;20229;-49